Time;durP1;ratioP1;P1;durP2;ratioP2;P2;SDS_P1;SDS_P2;PMS_P1;PMS_P2;Temp;Humidity;BMP_temperature;BMP_pressure;BME280_temperature;BME280_humidity;BME280_pressure;Samples;Min_cycle;Max_cycle;Signal;HPM_P1;HPM_P2
2022/06/04 00:00:53;;;;;;;3.67;3.33;;;17.20;58.90;;;;;;5063199;28;20024;-73
2022/06/04 00:03:19;;;;;;;5.63;3.17;;;17.10;58.70;;;;;;5046195;28;20039;-73
2022/06/04 00:05:51;;;;;;;3.20;2.88;;;17.10;58.70;;;;;;5057907;28;20466;-73
2022/06/04 00:08:18;;;;;;;4.07;3.20;;;17.10;58.70;;;;;;5028866;28;20129;-73
2022/06/04 00:16:23;;;;;;;6.43;3.40;;;17.10;58.60;;;;;;5050117;28;20074;-74
2022/06/04 00:18:49;;;;;;;3.30;3.00;;;17.10;58.60;;;;;;5060964;28;20427;-73
2022/06/04 00:21:15;;;;;;;3.20;2.90;;;17.00;58.40;;;;;;5044568;28;20032;-72
2022/06/04 00:23:42;;;;;;;5.50;3.85;;;17.00;58.40;;;;;;5066844;28;20052;-73
2022/06/04 00:26:10;;;;;;;3.70;3.38;;;17.00;58.40;;;;;;5074798;28;20098;-73
2022/06/04 00:28:36;;;;;;;4.72;3.20;;;17.00;58.40;;;;;;5062644;28;20658;-72
2022/06/04 00:31:04;;;;;;;6.70;4.05;;;17.00;58.30;;;;;;5060452;28;20024;-73
2022/06/04 00:33:29;;;;;;;3.13;2.83;;;17.00;58.30;;;;;;5047071;28;20036;-73
2022/06/04 00:35:57;;;;;;;3.83;3.17;;;17.00;58.30;;;;;;5065149;28;20041;-73
2022/06/04 00:38:26;;;;;;;3.47;3.17;;;17.00;58.30;;;;;;5054445;28;20484;-73
2022/06/04 00:41:23;;;;;;;3.97;2.80;;;17.00;58.30;;;;;;5075609;28;20039;-72
2022/06/04 00:44:01;;;;;;;4.97;3.50;;;16.90;58.20;;;;;;5067534;28;20043;-74
2022/06/04 00:46:33;;;;;;;5.70;3.20;;;16.90;58.10;;;;;;5070296;28;20119;-74
2022/06/04 00:48:59;;;;;;;4.80;3.00;;;16.90;58.10;;;;;;5071162;28;20074;-74
2022/06/04 00:51:26;;;;;;;3.20;2.90;;;16.90;58.10;;;;;;5073711;28;20029;-74
2022/06/04 00:53:53;;;;;;;4.97;3.22;;;16.90;58.00;;;;;;5046432;28;20134;-73
2022/06/04 00:56:35;;;;;;;5.68;3.35;;;16.90;58.00;;;;;;5059573;28;20539;-74
2022/06/04 00:59:24;;;;;;;3.10;2.80;;;16.90;58.10;;;;;;5070499;28;20038;-74
2022/06/04 01:02:11;;;;;;;6.10;3.05;;;16.90;58.10;;;;;;5077751;28;20040;-74
2022/06/04 01:05:04;;;;;;;4.50;2.88;;;16.90;58.10;;;;;;5058622;28;20027;-74
2022/06/04 01:08:06;;;;;;;3.35;2.78;;;16.90;58.00;;;;;;5060094;28;20067;-74
2022/06/04 01:10:50;;;;;;;2.83;2.58;;;16.90;58.00;;;;;;5031450;28;20025;-73
2022/06/04 01:13:43;;;;;;;4.55;3.17;;;16.80;57.70;;;;;;5051233;28;20078;-73
2022/06/04 01:16:19;;;;;;;3.60;2.67;;;16.90;57.90;;;;;;5057801;28;20025;-73
2022/06/04 01:19:15;;;;;;;3.97;3.20;;;16.90;57.80;;;;;;5087534;28;20032;-72
2022/06/04 01:22:09;;;;;;;3.00;2.40;;;16.90;57.80;;;;;;5062643;28;20082;-74
2022/06/04 01:24:35;;;;;;;4.65;2.58;;;16.90;57.80;;;;;;5045691;28;20119;-72
2022/06/04 01:27:53;;;;;;;3.63;2.67;;;16.90;57.70;;;;;;5056462;28;20111;-72
2022/06/04 01:30:34;;;;;;;3.45;2.30;;;16.90;57.80;;;;;;5011041;28;20036;-74
2022/06/04 01:33:31;;;;;;;4.70;3.50;;;16.90;57.70;;;;;;5054330;28;20028;-73
2022/06/04 01:36:10;;;;;;;3.13;2.75;;;16.80;57.50;;;;;;5050824;28;20040;-75
2022/06/04 01:38:53;;;;;;;2.53;2.20;;;16.80;57.50;;;;;;5073785;28;20029;-74
2022/06/04 01:41:25;;;;;;;2.95;2.45;;;16.80;57.40;;;;;;5063398;28;20606;-74
2022/06/04 01:44:00;;;;;;;3.53;2.65;;;16.80;57.40;;;;;;5080940;28;20618;-74
2022/06/04 01:46:34;;;;;;;3.50;2.97;;;16.70;57.20;;;;;;5048095;28;20048;-73
2022/06/04 01:49:31;;;;;;;2.88;2.47;;;16.70;57.20;;;;;;5052305;28;20044;-74
2022/06/04 01:52:05;;;;;;;2.35;2.10;;;16.70;57.20;;;;;;5030090;28;20032;-74
2022/06/04 01:54:43;;;;;;;4.78;2.83;;;16.70;57.10;;;;;;5055337;28;20060;-73
2022/06/04 01:57:37;;;;;;;2.47;2.17;;;16.70;57.10;;;;;;5050399;28;20059;-74
2022/06/04 02:00:11;;;;;;;5.07;2.33;;;16.60;57.00;;;;;;5057035;28;20123;-74
2022/06/04 02:02:42;;;;;;;3.25;1.88;;;16.60;56.90;;;;;;5051128;28;20151;-73
2022/06/04 02:05:13;;;;;;;2.35;1.98;;;16.70;57.00;;;;;;5058118;28;20430;-73
2022/06/04 02:07:44;;;;;;;3.70;2.10;;;16.60;56.80;;;;;;5067987;28;20092;-73
2022/06/04 02:10:15;;;;;;;2.53;2.28;;;16.60;56.80;;;;;;5067872;28;20059;-73
2022/06/04 02:12:44;;;;;;;2.53;1.90;;;16.60;56.80;;;;;;5050331;28;20117;-73
2022/06/04 02:15:14;;;;;;;2.60;2.03;;;16.50;56.60;;;;;;5055171;28;20051;-72
2022/06/04 02:17:44;;;;;;;3.53;2.10;;;16.60;56.70;;;;;;5049506;28;20064;-73
2022/06/04 02:20:12;;;;;;;2.75;2.00;;;16.50;56.50;;;;;;5041305;28;20024;-72
2022/06/04 02:22:38;;;;;;;3.45;2.03;;;16.60;56.70;;;;;;5044140;28;20032;-74
2022/06/04 02:25:07;;;;;;;4.78;2.33;;;16.50;56.50;;;;;;5061091;28;20062;-73
2022/06/04 02:27:34;;;;;;;2.78;1.50;;;16.50;56.50;;;;;;5067396;28;20139;-73
2022/06/04 02:30:00;;;;;;;2.05;1.75;;;16.50;56.50;;;;;;5049274;28;20024;-74
2022/06/04 02:32:40;;;;;;;3.15;1.52;;;16.50;57.00;;;;;;5054501;28;20114;-73
2022/06/04 02:35:29;;;;;;;2.65;1.80;;;16.50;56.40;;;;;;5032025;28;20111;-73
2022/06/04 02:37:58;;;;;;;5.28;2.67;;;16.40;56.30;;;;;;5054204;28;20032;-74
2022/06/04 02:40:35;;;;;;;2.38;1.73;;;16.40;56.20;;;;;;5066478;28;20495;-73
2022/06/04 02:43:21;;;;;;;1.83;1.50;;;16.40;56.20;;;;;;5056728;28;20037;-73
2022/06/04 02:45:54;;;;;;;1.85;1.45;;;16.40;56.30;;;;;;5067318;28;20031;-73
2022/06/04 02:48:25;;;;;;;3.97;2.10;;;16.40;56.20;;;;;;5043951;28;20056;-73
2022/06/04 02:50:59;;;;;;;3.20;2.40;;;16.30;56.00;;;;;;5052903;28;20054;-73
2022/06/04 02:53:27;;;;;;;3.72;1.73;;;16.30;56.10;;;;;;5057668;28;20035;-74
2022/06/04 02:56:19;;;;;;;2.78;1.98;;;16.30;56.10;;;;;;5055145;28;20024;-74
2022/06/04 02:58:51;;;;;;;2.80;1.70;;;16.20;55.90;;;;;;5066625;28;20179;-73
2022/06/04 03:01:19;;;;;;;2.75;2.00;;;16.30;56.10;;;;;;5043897;28;20017;-72
2022/06/04 03:03:45;;;;;;;2.83;2.08;;;16.20;55.90;;;;;;5066846;28;20036;-73
2022/06/04 03:06:30;;;;;;;3.70;1.73;;;16.20;56.00;;;;;;5065497;28;20032;-74
2022/06/04 03:08:57;;;;;;;2.97;1.75;;;16.20;56.00;;;;;;5066900;28;20040;-74
2022/06/04 03:11:24;;;;;;;4.78;2.75;;;16.20;55.90;;;;;;5044710;28;20086;-74
2022/06/04 03:13:49;;;;;;;5.18;2.33;;;16.20;55.90;;;;;;5067165;28;20749;-73
2022/06/04 03:16:16;;;;;;;3.25;2.17;;;16.20;55.90;;;;;;5065343;28;20023;-73
2022/06/04 03:18:43;;;;;;;3.58;1.80;;;16.20;56.00;;;;;;5066670;28;20032;-74
2022/06/04 03:21:09;;;;;;;3.53;2.35;;;16.20;56.00;;;;;;5063161;28;20055;-73
2022/06/04 03:23:35;;;;;;;2.45;2.03;;;16.20;56.00;;;;;;5064604;28;20056;-72
2022/06/04 03:26:01;;;;;;;3.17;2.17;;;16.20;56.00;;;;;;5066139;28;20106;-73
2022/06/04 03:28:26;;;;;;;2.30;2.10;;;16.20;55.90;;;;;;5064605;28;20085;-73
2022/06/04 03:30:52;;;;;;;2.35;2.00;;;16.20;56.00;;;;;;5065951;28;20421;-73
2022/06/04 03:33:18;;;;;;;4.15;2.05;;;16.10;55.80;;;;;;5047645;28;20070;-72
2022/06/04 03:35:44;;;;;;;5.53;2.42;;;16.10;56.40;;;;;;5062239;28;20024;-73
2022/06/04 03:38:10;;;;;;;4.03;3.55;;;16.10;55.80;;;;;;5047990;28;20056;-73
2022/06/04 03:40:36;;;;;;;5.10;2.30;;;16.20;56.00;;;;;;5063026;28;20910;-73
2022/06/04 03:43:03;;;;;;;2.80;2.30;;;16.10;55.80;;;;;;5028843;28;20057;-73
2022/06/04 03:45:29;;;;;;;6.00;2.63;;;16.10;55.80;;;;;;5052796;28;20032;-73
2022/06/04 03:47:56;;;;;;;6.18;3.22;;;16.10;55.90;;;;;;5056706;28;20118;-74
2022/06/04 03:50:25;;;;;;;3.40;2.50;;;16.10;56.50;;;;;;5062155;28;20078;-73
2022/06/04 03:52:51;;;;;;;3.28;2.10;;;16.10;56.00;;;;;;5047781;28;20052;-72
2022/06/04 03:55:18;;;;;;;5.25;3.17;;;16.10;56.00;;;;;;5053411;28;20074;-73
2022/06/04 03:57:49;;;;;;;3.85;2.40;;;16.10;56.10;;;;;;5046147;28;20029;-72
2022/06/04 04:00:29;;;;;;;5.35;3.17;;;16.10;56.10;;;;;;5047968;28;20067;-72
2022/06/04 04:03:16;;;;;;;3.85;2.25;;;16.00;56.00;;;;;;5066376;28;20025;-72
2022/06/04 04:05:53;;;;;;;5.85;2.83;;;16.00;55.90;;;;;;5060402;28;20431;-72
2022/06/04 04:08:24;;;;;;;6.10;2.55;;;16.00;56.00;;;;;;5065557;28;20609;-73
2022/06/04 04:10:50;;;;;;;5.07;2.72;;;16.00;56.00;;;;;;5069249;28;20057;-73
2022/06/04 04:13:17;;;;;;;3.75;2.78;;;16.00;56.00;;;;;;5069729;28;20059;-74
2022/06/04 04:15:44;;;;;;;3.33;3.03;;;16.00;56.10;;;;;;5025478;28;20514;-74
2022/06/04 04:18:10;;;;;;;4.45;2.60;;;16.00;56.10;;;;;;5062150;28;20020;-74
2022/06/04 04:20:38;;;;;;;3.72;2.60;;;16.00;56.10;;;;;;5050827;28;20036;-73
2022/06/04 04:23:06;;;;;;;6.93;2.65;;;16.00;56.20;;;;;;5050814;28;20055;-74
2022/06/04 04:25:34;;;;;;;3.10;2.45;;;15.90;56.00;;;;;;5063044;28;20429;-73
2022/06/04 04:28:00;;;;;;;3.88;2.40;;;15.90;56.00;;;;;;5054227;28;20044;-72
2022/06/04 04:30:29;;;;;;;6.35;2.70;;;15.90;56.10;;;;;;5051723;28;20028;-73
2022/06/04 04:32:56;;;;;;;5.65;3.22;;;15.90;56.10;;;;;;5065792;28;20079;-72
2022/06/04 04:35:24;;;;;;;4.72;2.50;;;15.90;56.20;;;;;;5043667;28;20029;-73
2022/06/04 04:37:51;;;;;;;3.90;2.78;;;15.90;56.20;;;;;;5051611;28;20441;-71
2022/06/04 04:40:19;;;;;;;5.50;2.55;;;15.90;56.20;;;;;;5067990;28;20475;-72
2022/06/04 04:42:47;;;;;;;4.03;2.60;;;15.90;56.30;;;;;;5069497;28;20030;-72
2022/06/04 04:45:15;;;;;;;4.43;3.03;;;15.80;56.20;;;;;;5069216;28;20124;-73
2022/06/04 04:47:43;;;;;;;3.30;2.70;;;15.80;56.30;;;;;;5046340;28;20546;-73
2022/06/04 04:50:20;;;;;;;5.57;2.70;;;15.80;56.30;;;;;;5066338;28;20045;-73
2022/06/04 04:52:47;;;;;;;5.65;2.97;;;15.80;56.40;;;;;;5057710;28;20040;-73
2022/06/04 04:55:13;;;;;;;2.88;2.65;;;15.80;56.40;;;;;;5054455;28;20040;-73
2022/06/04 04:57:39;;;;;;;3.88;2.65;;;15.80;56.50;;;;;;5060627;28;20570;-74
2022/06/04 05:00:06;;;;;;;6.07;3.72;;;15.80;56.60;;;;;;5066255;28;20025;-74
2022/06/04 05:02:33;;;;;;;4.78;3.33;;;15.70;56.40;;;;;;5033158;28;20131;-75
2022/06/04 05:04:59;;;;;;;6.03;3.00;;;15.70;56.50;;;;;;5061926;28;20032;-74
2022/06/04 05:07:25;;;;;;;5.10;3.13;;;15.70;56.60;;;;;;5066909;28;20125;-74
2022/06/04 05:09:50;;;;;;;3.75;2.90;;;15.70;56.60;;;;;;5066712;28;20149;-73
2022/06/04 05:12:16;;;;;;;5.25;3.03;;;15.70;56.70;;;;;;5052191;28;20052;-72
2022/06/04 05:14:42;;;;;;;3.92;2.60;;;15.70;56.80;;;;;;5062272;28;20132;-72
2022/06/04 05:17:08;;;;;;;4.72;3.20;;;15.70;56.80;;;;;;5056955;28;20143;-74
2022/06/04 05:19:35;;;;;;;4.18;2.85;;;15.70;56.90;;;;;;5044257;28;20107;-74
2022/06/04 05:22:01;;;;;;;6.05;3.55;;;15.70;56.90;;;;;;5064221;28;20028;-73
2022/06/04 05:24:34;;;;;;;3.35;2.83;;;15.70;57.00;;;;;;5056533;28;20032;-73
2022/06/04 05:27:01;;;;;;;7.25;4.03;;;15.70;57.10;;;;;;5064958;28;20021;-73
2022/06/04 05:29:28;;;;;;;3.63;2.95;;;15.70;57.10;;;;;;5064862;28;20068;-73
2022/06/04 05:31:54;;;;;;;7.03;4.07;;;15.70;57.10;;;;;;5066285;28;20038;-72
2022/06/04 05:34:20;;;;;;;4.55;3.42;;;15.70;57.10;;;;;;5066099;28;20036;-73
2022/06/04 05:36:47;;;;;;;4.28;3.67;;;15.70;57.20;;;;;;5043315;28;20056;-74
2022/06/04 05:39:15;;;;;;;7.10;3.70;;;15.70;57.10;;;;;;5060945;28;20078;-73
2022/06/04 05:41:41;;;;;;;4.10;3.25;;;15.80;57.30;;;;;;5055865;28;20104;-75
2022/06/04 05:44:07;;;;;;;4.07;3.22;;;15.80;57.30;;;;;;5057430;28;20028;-76
2022/06/04 05:46:33;;;;;;;4.22;3.45;;;15.80;57.30;;;;;;5056474;28;20680;-74
2022/06/04 05:48:59;;;;;;;6.13;3.65;;;15.90;57.70;;;;;;5061136;28;20047;-77
2022/06/04 05:51:27;;;;;;;4.72;3.42;;;15.90;57.70;;;;;;5056569;28;20522;-74
2022/06/04 05:53:54;;;;;;;3.90;3.42;;;16.00;58.00;;;;;;5059736;28;20082;-74
2022/06/04 05:56:26;;;;;;;3.95;3.28;;;16.00;58.00;;;;;;5059641;28;20043;-74
2022/06/04 05:58:56;;;;;;;8.73;3.60;;;16.00;58.00;;;;;;5061698;28;20047;-75
2022/06/04 06:01:23;;;;;;;10.85;4.07;;;16.00;58.00;;;;;;5030417;28;20029;-77
2022/06/04 06:03:49;;;;;;;4.32;3.53;;;16.00;58.00;;;;;;5026198;28;20025;-78
2022/06/04 06:06:21;;;;;;;4.60;3.75;;;16.10;58.50;;;;;;5041931;28;20028;-75
2022/06/04 06:08:48;;;;;;;4.00;3.33;;;16.10;58.60;;;;;;5055399;28;20234;-76
2022/06/04 06:11:15;;;;;;;7.78;3.38;;;16.10;58.50;;;;;;5043507;28;20127;-76
2022/06/04 06:13:43;;;;;;;3.78;3.35;;;16.10;58.50;;;;;;5057821;28;20029;-76
2022/06/04 06:16:24;;;;;;;4.85;3.75;;;16.20;58.60;;;;;;5055180;28;20036;-76
2022/06/04 06:18:50;;;;;;;5.20;3.63;;;16.20;58.70;;;;;;5042336;28;20024;-74
2022/06/04 06:21:21;;;;;;;5.38;3.85;;;16.20;58.60;;;;;;5037047;28;20645;-75
2022/06/04 06:23:49;;;;;;;4.70;4.20;;;16.30;59.70;;;;;;5041896;28;20050;-75
2022/06/04 06:26:19;;;;;;;9.23;4.68;;;16.40;60.30;;;;;;5064454;28;20153;-76
2022/06/04 06:28:45;;;;;;;7.10;3.00;;;16.60;61.00;;;;;;5047015;28;20044;-76
2022/06/04 06:31:15;;;;;;;6.65;3.17;;;16.80;61.50;;;;;;5057782;28;20404;-75
2022/06/04 06:33:41;;;;;;;4.22;3.35;;;17.00;61.90;;;;;;5066127;28;20542;-75
2022/06/04 06:36:09;;;;;;;3.90;2.92;;;17.20;62.10;;;;;;5064928;28;20115;-76
2022/06/04 06:38:35;;;;;;;5.15;3.47;;;17.40;62.30;;;;;;5027535;28;20206;-75
2022/06/04 06:41:02;;;;;;;4.90;2.78;;;17.60;62.50;;;;;;5065347;28;20575;-75
2022/06/04 06:43:47;;;;;;;3.85;3.03;;;17.70;62.60;;;;;;5039501;28;20032;-73
2022/06/04 06:46:35;;;;;;;4.55;3.42;;;17.90;62.80;;;;;;5056681;28;20459;-77
2022/06/04 06:49:14;;;;;;;6.13;3.05;;;18.00;62.80;;;;;;5043515;28;20044;-74
2022/06/04 06:51:47;;;;;;;5.38;2.92;;;18.00;62.40;;;;;;5060223;28;20803;-79
2022/06/04 06:54:17;;;;;;;6.18;3.42;;;18.10;62.30;;;;;;5056634;28;20496;-73
2022/06/04 06:56:44;;;;;;;4.82;3.42;;;18.10;62.20;;;;;;5061438;28;20294;-77
2022/06/04 06:59:10;;;;;;;6.25;3.42;;;18.20;62.30;;;;;;5065637;28;20031;-79
2022/06/04 07:01:37;;;;;;;5.10;3.47;;;18.30;62.40;;;;;;5048329;28;20101;-79
2022/06/04 07:04:05;;;;;;;5.82;2.95;;;18.50;62.60;;;;;;5031305;28;20028;-78
2022/06/04 07:06:30;;;;;;;5.53;2.90;;;18.60;62.50;;;;;;5046851;28;20039;-79
2022/06/04 07:08:57;;;;;;;3.53;3.00;;;18.70;62.30;;;;;;5037865;28;20036;-76
2022/06/04 07:11:23;;;;;;;2.55;2.35;;;19.00;62.50;;;;;;5057330;28;20319;-76
2022/06/04 07:13:49;;;;;;;3.63;2.80;;;19.10;62.30;;;;;;5039121;28;20032;-77
2022/06/04 07:16:15;;;;;;;4.40;2.60;;;19.30;62.30;;;;;;5065125;28;20024;-78
2022/06/04 07:18:41;;;;;;;6.15;2.70;;;19.40;62.00;;;;;;5064312;28;20040;-75
2022/06/04 07:21:07;;;;;;;5.28;3.00;;;19.60;62.00;;;;;;5043892;28;20029;-74
2022/06/04 07:23:35;;;;;;;4.13;3.13;;;19.80;61.90;;;;;;5041788;28;20028;-77
2022/06/04 07:26:03;;;;;;;5.03;2.70;;;20.00;61.70;;;;;;5044789;28;20071;-78
2022/06/04 07:28:30;;;;;;;3.17;2.33;;;20.10;61.40;;;;;;5066683;28;20495;-77
2022/06/04 07:30:56;;;;;;;3.70;3.00;;;20.20;61.30;;;;;;5073476;28;20048;-78
2022/06/04 07:33:22;;;;;;;5.15;2.70;;;20.20;61.10;;;;;;5055395;28;20039;-77
2022/06/04 07:35:50;;;;;;;5.20;3.20;;;20.20;60.90;;;;;;5051301;28;20032;-80
2022/06/04 07:38:17;;;;;;;3.67;2.70;;;20.30;60.90;;;;;;5068599;28;20425;-76
2022/06/04 07:40:44;;;;;;;4.10;2.83;;;20.30;60.80;;;;;;5067899;28;20035;-77
2022/06/04 07:43:11;;;;;;;3.20;2.30;;;20.40;60.80;;;;;;5069348;28;20032;-76
2022/06/04 07:45:37;;;;;;;5.97;2.55;;;20.50;60.80;;;;;;5056730;28;20033;-73
2022/06/04 07:48:04;;;;;;;7.53;4.00;;;20.50;60.50;;;;;;5067807;28;20497;-74
2022/06/04 07:50:31;;;;;;;3.92;2.63;;;20.50;60.30;;;;;;5051455;28;20058;-73
2022/06/04 07:52:58;;;;;;;3.72;2.33;;;20.40;60.00;;;;;;5034649;28;20078;-74
2022/06/04 07:55:25;;;;;;;4.03;3.20;;;20.40;60.00;;;;;;5059340;28;20028;-73
2022/06/04 07:57:51;;;;;;;5.55;2.95;;;20.40;59.90;;;;;;5062533;28;20029;-73
2022/06/04 08:00:19;;;;;;;3.67;3.03;;;20.40;59.80;;;;;;5055512;28;20341;-73
2022/06/04 08:02:46;;;;;;;3.40;2.40;;;20.30;59.50;;;;;;5060029;28;20492;-74
2022/06/04 08:05:14;;;;;;;4.53;2.92;;;20.30;59.40;;;;;;5036091;28;20029;-73
2022/06/04 08:07:41;;;;;;;3.70;2.75;;;20.20;59.20;;;;;;5064898;28;20171;-74
2022/06/04 08:10:10;;;;;;;3.25;2.70;;;20.10;59.00;;;;;;5042483;28;20082;-75
2022/06/04 08:12:41;;;;;;;3.65;3.28;;;20.00;58.80;;;;;;5060355;28;20024;-75
2022/06/04 08:15:07;;;;;;;4.97;2.75;;;19.90;58.60;;;;;;5042620;28;20029;-73
2022/06/04 08:17:33;;;;;;;3.05;2.28;;;19.80;58.40;;;;;;5048694;28;20123;-73
2022/06/04 08:19:59;;;;;;;3.10;2.70;;;19.80;58.50;;;;;;5044113;28;20122;-73
2022/06/04 08:22:25;;;;;;;4.75;3.53;;;19.80;58.40;;;;;;5060010;28;20403;-74
2022/06/04 08:24:51;;;;;;;3.95;3.47;;;19.80;58.20;;;;;;5052991;28;20040;-74
2022/06/04 08:27:17;;;;;;;3.42;2.83;;;19.90;58.10;;;;;;5041220;28;20055;-73
2022/06/04 08:29:44;;;;;;;5.13;3.33;;;20.10;58.00;;;;;;5057913;28;20098;-75
2022/06/04 08:32:12;;;;;;;3.22;2.50;;;20.20;58.40;;;;;;5059446;28;20115;-74
2022/06/04 08:34:38;;;;;;;5.97;3.10;;;20.20;57.50;;;;;;5053536;28;20032;-75
2022/06/04 08:37:05;;;;;;;6.80;3.35;;;20.40;57.50;;;;;;5016819;28;20381;-74
2022/06/04 08:39:31;;;;;;;3.80;3.35;;;20.50;57.40;;;;;;5011379;28;20029;-73
2022/06/04 08:42:10;;;;;;;3.63;3.10;;;20.60;57.30;;;;;;5043522;28;20032;-74
2022/06/04 08:44:42;;;;;;;4.03;3.15;;;20.60;57.00;;;;;;5056677;28;20136;-73
2022/06/04 08:47:26;;;;;;;5.90;3.10;;;20.60;56.80;;;;;;5060504;28;20067;-73
2022/06/04 08:50:06;;;;;;;5.32;2.92;;;20.70;56.90;;;;;;5059592;28;20256;-74
2022/06/04 08:52:39;;;;;;;4.50;2.95;;;20.70;56.80;;;;;;5061367;28;20352;-74
2022/06/04 08:58:27;;;;;;;3.13;2.55;;;21.10;56.60;;;;;;5037687;28;20047;-74
2022/06/04 09:00:57;;;;;;;4.00;2.90;;;21.30;56.60;;;;;;5048899;28;20021;-75
2022/06/04 09:03:34;;;;;;;5.28;3.35;;;21.40;56.40;;;;;;5072816;28;20123;-74
2022/06/04 09:06:22;;;;;;;5.35;2.83;;;21.50;56.20;;;;;;5063120;28;20032;-73
2022/06/04 09:09:13;;;;;;;4.85;3.38;;;21.70;56.10;;;;;;5064229;28;20486;-73
2022/06/04 09:11:54;;;;;;;3.03;2.50;;;21.80;55.90;;;;;;5032911;28;20036;-74
2022/06/04 09:14:43;;;;;;;2.40;2.20;;;21.90;55.90;;;;;;5046691;28;20036;-75
2022/06/04 09:17:31;;;;;;;5.97;3.58;;;21.90;55.70;;;;;;5060095;28;20059;-74
2022/06/04 09:19:59;;;;;;;4.13;2.90;;;21.80;55.60;;;;;;5064241;28;20035;-75
2022/06/04 09:22:40;;;;;;;4.30;2.38;;;21.80;55.70;;;;;;5044296;28;20509;-75
2022/06/04 09:25:12;;;;;;;2.80;2.33;;;21.90;55.60;;;;;;5044926;28;20480;-74
2022/06/04 09:28:34;;;;;;;4.45;3.22;;;21.90;55.40;;;;;;5063033;28;20038;-74
2022/06/04 09:31:08;;;;;;;4.55;2.80;;;22.00;55.30;;;;;;4964869;28;20184;-74
2022/06/04 09:33:57;;;;;;;4.10;2.90;;;22.00;55.30;;;;;;5058756;28;20122;-75
2022/06/04 09:36:27;;;;;;;4.28;2.92;;;22.00;55.10;;;;;;5064637;28;20467;-73
2022/06/04 09:38:56;;;;;;;4.47;3.20;;;22.10;55.10;;;;;;5060153;28;20054;-73
2022/06/04 09:41:25;;;;;;;5.68;3.33;;;22.10;55.00;;;;;;5058191;28;20040;-74
2022/06/04 09:44:05;;;;;;;4.18;2.65;;;22.20;55.00;;;;;;5064636;28;20174;-74
2022/06/04 09:46:32;;;;;;;4.32;3.00;;;22.20;54.70;;;;;;5057462;28;20536;-73
2022/06/04 09:48:59;;;;;;;3.67;2.80;;;22.40;54.90;;;;;;5064786;28;20637;-73
2022/06/04 09:51:28;;;;;;;3.78;3.00;;;22.60;54.90;;;;;;5058404;28;20051;-73
2022/06/04 09:54:02;;;;;;;3.72;3.00;;;22.90;54.70;;;;;;5065079;28;20029;-74
2022/06/04 09:56:38;;;;;;;2.90;2.20;;;23.20;54.50;;;;;;5051935;28;20033;-73
2022/06/04 09:59:31;;;;;;;4.97;2.58;;;23.60;54.30;;;;;;5060994;28;20032;-73
2022/06/04 10:02:12;;;;;;;2.90;2.55;;;23.80;53.90;;;;;;5059842;28;20028;-73
2022/06/04 10:04:47;;;;;;;3.97;2.60;;;24.00;54.00;;;;;;5043607;28;20051;-74
2022/06/04 10:07:29;;;;;;;4.68;3.20;;;24.20;54.00;;;;;;5039402;28;20029;-74
2022/06/04 10:09:58;;;;;;;6.65;2.92;;;24.40;53.80;;;;;;5062216;28;20321;-73
2022/06/04 10:15:32;;;;;;;3.25;2.42;;;24.60;53.50;;;;;;5038279;28;20037;-73
2022/06/04 10:18:18;;;;;;;3.22;2.40;;;24.70;53.60;;;;;;5029366;28;20106;-73
2022/06/04 10:20:59;;;;;;;5.88;2.72;;;24.80;53.40;;;;;;5061876;28;20112;-74
2022/06/04 10:23:27;;;;;;;3.65;2.15;;;25.00;53.40;;;;;;5055426;28;20185;-74
2022/06/04 10:26:08;;;;;;;4.85;2.75;;;25.20;53.20;;;;;;5075558;28;20369;-75
2022/06/04 10:29:09;;;;;;;2.88;2.05;;;25.60;52.70;;;;;;5061289;28;20582;-74
2022/06/04 10:32:03;;;;;;;3.78;2.63;;;26.00;52.10;;;;;;5041179;28;20051;-74
2022/06/04 10:34:47;;;;;;;3.03;2.60;;;26.40;51.50;;;;;;5043294;28;20111;-76
2022/06/04 10:37:42;;;;;;;3.10;2.30;;;26.60;51.00;;;;;;5062690;28;20028;-74
2022/06/04 10:40:30;;;;;;;4.03;2.22;;;26.70;50.60;;;;;;5060905;28;20601;-73
2022/06/04 10:43:14;;;;;;;4.38;2.20;;;26.80;50.50;;;;;;5055746;28;20095;-74
2022/06/04 10:45:47;;;;;;;3.88;2.40;;;26.80;50.30;;;;;;5029817;28;20464;-74
2022/06/04 10:48:19;;;;;;;3.13;2.35;;;26.80;50.30;;;;;;5059706;28;20037;-76
2022/06/04 10:51:26;;;;;;;2.85;2.40;;;26.80;49.90;;;;;;5068568;28;20450;-76
2022/06/04 10:54:21;;;;;;;2.95;2.17;;;26.90;49.70;;;;;;5058264;28;20028;-75
2022/06/04 10:57:10;;;;;;;4.40;2.45;;;27.00;49.30;;;;;;5063782;28;20025;-77
2022/06/04 10:59:58;;;;;;;3.10;2.28;;;27.20;49.20;;;;;;5029530;28;20032;-76
2022/06/04 11:02:53;;;;;;;2.92;2.20;;;27.50;48.80;;;;;;5055060;28;20031;-75
2022/06/04 11:05:40;;;;;;;2.72;1.90;;;27.70;48.20;;;;;;5060954;28;20059;-77
2022/06/04 11:08:25;;;;;;;3.15;1.95;;;27.80;47.90;;;;;;5027434;28;20040;-76
2022/06/04 11:10:53;;;;;;;3.03;2.00;;;27.90;47.80;;;;;;5057927;28;20044;-76
2022/06/04 11:13:33;;;;;;;3.28;2.20;;;28.10;47.80;;;;;;5059262;28;20037;-75
2022/06/04 11:16:00;;;;;;;3.38;2.38;;;28.10;46.60;;;;;;5045038;28;20048;-73
2022/06/04 11:18:35;;;;;;;6.28;2.30;;;28.00;46.50;;;;;;5061536;28;20399;-75
2022/06/04 11:21:26;;;;;;;5.03;2.20;;;27.90;45.70;;;;;;5062181;28;20438;-75
2022/06/04 11:23:57;;;;;;;7.07;2.85;;;27.70;45.10;;;;;;5062049;28;20113;-76
2022/06/04 11:26:38;;;;;;;6.50;2.55;;;27.50;45.30;;;;;;5026251;28;20060;-76
2022/06/04 11:29:05;;;;;;;8.55;3.15;;;27.10;45.00;;;;;;5058574;28;20045;-74
2022/06/04 11:32:00;;;;;;;4.35;2.75;;;26.70;45.10;;;;;;5063141;28;20115;-74
2022/06/04 11:34:50;;;;;;;4.38;2.97;;;26.30;45.00;;;;;;5043553;28;20083;-74
2022/06/04 11:37:34;;;;;;;9.90;3.50;;;26.20;45.40;;;;;;5043053;28;20044;-75
2022/06/04 11:40:12;;;;;;;4.97;2.90;;;26.10;45.50;;;;;;5063526;28;20166;-80
2022/06/04 11:43:04;;;;;;;7.45;3.25;;;26.20;45.70;;;;;;5064201;28;20047;-78
2022/06/04 11:45:47;;;;;;;5.87;3.03;;;26.10;45.30;;;;;;5027829;28;20682;-79
2022/06/04 11:48:24;;;;;;;;;;;26.10;45.30;;;;;;5064505;28;20048;-80
2022/06/04 11:50:56;;;;;;;8.52;2.80;;;25.90;45.70;;;;;;5041284;28;20429;-74
2022/06/04 11:53:50;;;;;;;4.53;2.70;;;25.60;46.00;;;;;;5061011;28;20123;-73
2022/06/04 11:56:41;;;;;;;4.22;2.97;;;25.30;46.00;;;;;;5060361;28;20033;-76
2022/06/04 11:59:31;;;;;;;4.78;2.78;;;24.90;46.20;;;;;;5058099;28;20634;-74
2022/06/04 12:02:26;;;;;;;4.18;2.55;;;24.90;46.40;;;;;;5056510;28;20069;-75
2022/06/04 12:05:47;;;;;;;5.43;2.45;;;24.80;46.70;;;;;;5060033;28;20103;-73
2022/06/04 12:08:17;;;;;;;3.72;2.22;;;24.80;46.30;;;;;;4976044;28;20130;-75
2022/06/04 12:11:03;;;;;;;7.35;3.15;;;25.10;46.50;;;;;;5049604;28;20127;-73
2022/06/04 12:14:00;;;;;;;5.20;2.67;;;25.40;46.10;;;;;;5058665;28;20028;-73
2022/06/04 12:16:30;;;;;;;3.67;2.85;;;25.80;45.30;;;;;;5046215;28;20056;-74
2022/06/04 12:25:07;;;;;;;8.60;3.20;;;25.80;44.90;;;;;;5064057;28;20060;-79
2022/06/04 12:27:33;;;;;;;8.50;2.88;;;25.50;45.20;;;;;;5065129;28;20043;-81
2022/06/04 12:30:12;;;;;;;5.28;2.42;;;25.30;45.50;;;;;;5045187;28;20422;-86
2022/06/04 12:32:38;;;;;;;4.72;2.70;;;25.40;45.60;;;;;;5068734;28;20069;-79
2022/06/04 12:35:07;;;;;;;6.47;3.03;;;25.60;45.30;;;;;;5069907;28;20033;-83
2022/06/04 12:37:36;;;;;;;5.32;2.55;;;25.80;45.00;;;;;;5068507;28;20032;-84
2022/06/04 12:40:22;;;;;;;4.25;2.50;;;26.00;44.80;;;;;;5070661;28;20429;-89
2022/06/04 12:43:06;;;;;;;5.35;2.78;;;26.40;44.60;;;;;;5056577;28;20294;-79
2022/06/04 12:45:47;;;;;;;3.17;2.20;;;26.90;44.30;;;;;;5055679;28;20046;-79
2022/06/04 12:48:22;;;;;;;5.45;2.67;;;27.30;43.90;;;;;;5050351;28;20044;-82
2022/06/04 12:50:58;;;;;;;5.78;2.63;;;27.70;43.50;;;;;;5066376;28;20024;-80
2022/06/04 12:53:26;;;;;;;5.55;2.38;;;28.00;43.20;;;;;;5053085;28;20025;-82
2022/06/04 12:55:58;;;;;;;4.18;2.30;;;28.30;43.00;;;;;;5068643;28;20028;-84
2022/06/04 12:58:41;;;;;;;4.72;2.05;;;28.40;42.60;;;;;;5069563;28;20032;-86
2022/06/04 13:01:16;;;;;;;4.43;2.70;;;28.70;42.40;;;;;;5060877;28;20051;-83
2022/06/04 13:03:44;;;;;;;5.32;2.50;;;28.80;42.10;;;;;;5051515;28;20032;-84
2022/06/04 13:06:12;;;;;;;4.50;2.55;;;28.90;42.10;;;;;;5070542;28;20110;-84
2022/06/04 13:08:53;;;;;;;4.65;2.33;;;28.90;41.90;;;;;;5051848;28;20040;-84
2022/06/04 13:11:50;;;;;;;4.60;2.38;;;28.90;41.90;;;;;;5058393;28;20033;-75
2022/06/04 13:14:25;;;;;;;4.10;2.13;;;28.80;41.90;;;;;;5059836;28;20029;-76
2022/06/04 13:16:55;;;;;;;2.88;2.30;;;28.50;42.30;;;;;;5063432;28;20555;-75
2022/06/04 13:19:43;;;;;;;5.85;2.50;;;28.30;42.60;;;;;;5055376;28;20036;-76
2022/06/04 13:22:20;;;;;;;4.03;2.30;;;28.10;42.80;;;;;;5050676;28;20033;-77
2022/06/04 13:24:47;;;;;;;8.93;2.58;;;28.00;43.10;;;;;;5031831;28;20037;-75
2022/06/04 13:27:19;;;;;;;3.80;2.22;;;27.80;43.30;;;;;;5055065;28;20078;-75
2022/06/04 13:29:56;;;;;;;6.25;2.67;;;27.60;43.40;;;;;;5073052;28;20279;-74
2022/06/04 13:32:24;;;;;;;2.80;1.92;;;27.50;43.30;;;;;;5054495;28;20160;-76
2022/06/04 13:35:01;;;;;;;5.82;3.08;;;27.30;43.40;;;;;;5057760;28;20040;-76
2022/06/04 13:37:32;;;;;;;3.58;2.08;;;27.10;43.20;;;;;;5058633;28;20036;-76
2022/06/04 13:40:01;;;;;;;5.82;2.78;;;26.90;43.30;;;;;;5059470;28;20033;-75